Time;durP1;ratioP1;P1;durP2;ratioP2;P2;SDS_P1;SDS_P2;PMS_P1;PMS_P2;Temp;Humidity;BMP_temperature;BMP_pressure;BME280_temperature;BME280_humidity;BME280_pressure;Samples;Min_cycle;Max_cycle;Signal;HPM_P1;HPM_P2
2024/03/29 00:00:37;;;;;;;3.55;0.47;;;9.50;99.90;;;;;;5005099;28;20121;-73
2024/03/29 00:03:04;;;;;;;4.57;0.40;;;9.40;99.90;;;;;;5004635;28;20057;-72
2024/03/29 00:05:29;;;;;;;3.30;0.30;;;9.40;99.90;;;;;;5005826;28;20042;-73
2024/03/29 00:07:55;;;;;;;7.35;1.13;;;9.40;99.90;;;;;;5004975;28;20105;-72
2024/03/29 00:10:20;;;;;;;1.58;0.28;;;9.40;99.90;;;;;;5006308;28;20038;-72
2024/03/29 00:12:46;;;;;;;7.40;0.82;;;9.40;99.90;;;;;;5005516;28;20042;-72
2024/03/29 00:15:12;;;;;;;4.90;0.65;;;9.40;99.90;;;;;;5004511;28;20503;-72
2024/03/29 00:17:38;;;;;;;5.53;0.90;;;9.40;99.90;;;;;;4998472;28;20053;-72
2024/03/29 00:20:05;;;;;;;4.65;0.68;;;9.30;99.90;;;;;;4996352;28;20145;-71
2024/03/29 00:22:31;;;;;;;6.43;0.43;;;9.30;99.90;;;;;;5000473;28;20466;-73
2024/03/29 00:24:57;;;;;;;3.40;0.75;;;9.30;99.90;;;;;;4996569;28;20109;-73
2024/03/29 00:27:25;;;;;;;2.95;0.30;;;9.30;99.90;;;;;;5004909;28;20552;-72
2024/03/29 00:29:54;;;;;;;8.82;0.85;;;9.30;99.90;;;;;;5004662;28;20610;-72
2024/03/29 00:32:21;;;;;;;4.97;0.55;;;9.30;99.90;;;;;;5011642;28;20036;-72
2024/03/29 00:34:49;;;;;;;3.60;0.50;;;9.30;99.90;;;;;;5013006;28;20038;-72
2024/03/29 00:37:15;;;;;;;3.50;0.75;;;9.30;99.90;;;;;;5013335;28;20018;-72
2024/03/29 00:39:41;;;;;;;2.33;0.30;;;9.30;99.90;;;;;;5001164;28;20043;-72
2024/03/29 00:42:08;;;;;;;5.00;0.70;;;9.30;99.90;;;;;;5010394;28;20068;-71
2024/03/29 00:44:37;;;;;;;6.78;0.30;;;9.30;99.90;;;;;;5017294;28;20033;-70
2024/03/29 00:47:06;;;;;;;7.20;0.50;;;9.30;99.90;;;;;;5008335;28;20037;-71
2024/03/29 00:49:31;;;;;;;3.05;0.45;;;9.30;99.90;;;;;;5008564;28;20462;-71
2024/03/29 00:51:57;;;;;;;5.03;0.50;;;9.20;99.90;;;;;;5011961;28;20112;-72
2024/03/29 00:54:25;;;;;;;3.08;0.50;;;9.20;99.90;;;;;;5013162;28;20411;-72
2024/03/29 00:56:52;;;;;;;5.30;1.13;;;9.20;99.90;;;;;;5012692;28;20060;-71
2024/03/29 00:59:18;;;;;;;5.07;0.63;;;9.20;99.90;;;;;;5011562;28;20040;-72
2024/03/29 01:01:44;;;;;;;3.55;0.30;;;9.20;99.90;;;;;;5012251;28;20033;-73
2024/03/29 01:04:10;;;;;;;6.45;0.28;;;9.20;99.90;;;;;;5009163;28;20651;-71
2024/03/29 01:06:36;;;;;;;3.38;0.50;;;9.10;99.90;;;;;;5012538;28;20099;-72
2024/03/29 01:09:03;;;;;;;3.90;0.52;;;9.10;99.90;;;;;;5013201;28;20451;-72
2024/03/29 01:11:29;;;;;;;5.95;0.60;;;9.10;99.90;;;;;;4986527;28;20033;-73
2024/03/29 01:13:54;;;;;;;6.35;1.35;;;9.10;99.90;;;;;;5007534;28;20038;-72
2024/03/29 01:16:20;;;;;;;2.08;0.70;;;9.20;99.90;;;;;;5011302;28;20040;-73
2024/03/29 01:18:46;;;;;;;3.97;0.70;;;9.30;99.90;;;;;;4993583;28;20141;-72
2024/03/29 01:21:12;;;;;;;1.55;0.25;;;9.30;99.90;;;;;;5013382;28;20042;-72
2024/03/29 01:23:38;;;;;;;3.90;0.60;;;9.20;99.90;;;;;;5016204;28;20034;-71
2024/03/29 01:26:06;;;;;;;6.47;0.30;;;9.20;99.90;;;;;;5015840;28;20041;-70
2024/03/29 01:28:31;;;;;;;3.10;0.45;;;9.20;99.90;;;;;;5001534;28;20099;-71
2024/03/29 01:30:58;;;;;;;5.72;0.60;;;9.10;99.90;;;;;;5016253;28;20042;-71
2024/03/29 01:33:24;;;;;;;4.80;0.30;;;9.10;99.90;;;;;;5013577;28;20030;-72
2024/03/29 01:35:50;;;;;;;7.03;1.17;;;9.10;99.90;;;;;;4998269;28;20091;-71
2024/03/29 01:38:16;;;;;;;1.83;0.73;;;9.10;99.90;;;;;;5015018;28;20585;-72
2024/03/29 01:40:42;;;;;;;1.92;0.40;;;9.10;99.90;;;;;;5014455;28;20057;-72
2024/03/29 01:43:08;;;;;;;6.40;0.28;;;9.10;99.90;;;;;;5018246;28;20122;-72
2024/03/29 01:45:38;;;;;;;5.78;0.47;;;9.10;99.90;;;;;;5018846;28;20116;-71
2024/03/29 01:48:05;;;;;;;2.08;0.43;;;9.10;99.90;;;;;;5014594;28;20036;-68
2024/03/29 01:50:31;;;;;;;2.22;0.30;;;9.10;99.90;;;;;;4998095;28;20542;-71
2024/03/29 01:52:57;;;;;;;5.45;0.40;;;9.10;99.90;;;;;;5014811;28;20124;-72
2024/03/29 01:55:23;;;;;;;2.50;0.32;;;9.00;99.90;;;;;;5017624;28;20192;-72
2024/03/29 01:57:50;;;;;;;4.88;0.60;;;9.00;99.90;;;;;;5016843;28;20510;-73
2024/03/29 02:00:16;;;;;;;1.95;0.30;;;9.00;99.90;;;;;;5015973;28;20044;-71
2024/03/29 02:02:42;;;;;;;6.55;0.50;;;9.00;99.90;;;;;;5017200;28;20041;-71
2024/03/29 02:05:08;;;;;;;5.00;0.77;;;9.00;99.90;;;;;;5016143;28;20073;-72
2024/03/29 02:07:35;;;;;;;5.15;0.82;;;8.90;99.90;;;;;;5001022;28;20044;-72
2024/03/29 02:10:01;;;;;;;6.30;1.10;;;8.90;99.90;;;;;;5014925;28;20058;-71
2024/03/29 02:12:27;;;;;;;2.45;0.30;;;8.90;99.90;;;;;;5013346;28;20100;-73
2024/03/29 02:14:52;;;;;;;4.07;0.73;;;8.90;99.90;;;;;;5017740;28;20038;-71
2024/03/29 02:17:18;;;;;;;4.75;0.65;;;8.90;99.90;;;;;;5015719;28;20030;-72
2024/03/29 02:19:44;;;;;;;5.55;1.52;;;8.80;99.90;;;;;;5018486;28;20040;-71
2024/03/29 02:22:13;;;;;;;3.60;0.68;;;8.80;99.90;;;;;;5017266;28;20051;-72
2024/03/29 02:24:39;;;;;;;2.83;0.68;;;8.90;99.90;;;;;;5017854;28;20091;-71
2024/03/29 02:27:05;;;;;;;3.88;0.43;;;8.80;99.90;;;;;;5015341;28;20495;-71
2024/03/29 02:29:31;;;;;;;4.60;0.50;;;8.80;99.90;;;;;;5015804;28;20041;-72
2024/03/29 02:31:56;;;;;;;4.22;0.28;;;8.90;99.90;;;;;;5015853;28;20061;-72
2024/03/29 02:34:23;;;;;;;3.50;0.20;;;8.90;99.90;;;;;;4999629;28;20566;-72
2024/03/29 02:36:48;;;;;;;1.88;0.70;;;8.90;99.90;;;;;;5015437;28;20044;-71
2024/03/29 02:39:14;;;;;;;5.70;0.75;;;8.80;99.90;;;;;;5018660;28;20041;-71
2024/03/29 02:41:39;;;;;;;3.00;0.40;;;8.80;99.90;;;;;;5018252;28;20033;-72
2024/03/29 02:44:05;;;;;;;3.05;0.40;;;8.80;99.90;;;;;;5011944;28;20068;-71
2024/03/29 02:46:31;;;;;;;3.58;0.30;;;8.80;99.90;;;;;;5015563;28;20053;-72
2024/03/29 02:48:56;;;;;;;3.40;0.75;;;8.80;99.90;;;;;;5018737;28;20115;-72
2024/03/29 02:51:22;;;;;;;12.23;1.05;;;8.90;99.90;;;;;;5008482;28;20030;-72
2024/03/29 02:53:48;;;;;;;2.47;0.60;;;8.80;99.90;;;;;;5009358;28;20044;-71
2024/03/29 02:56:15;;;;;;;1.20;0.20;;;8.90;99.90;;;;;;5010886;28;20046;-72
2024/03/29 02:58:41;;;;;;;3.33;0.52;;;8.90;99.90;;;;;;5018495;28;20026;-73
2024/03/29 03:01:10;;;;;;;2.40;0.25;;;8.90;99.90;;;;;;5012431;28;20045;-73
2024/03/29 03:03:36;;;;;;;3.45;0.30;;;9.00;99.90;;;;;;5012256;28;20056;-72
2024/03/29 03:06:02;;;;;;;5.93;0.68;;;8.90;99.90;;;;;;5015078;28;20498;-72
2024/03/29 03:11:13;;;;;;;2.03;0.25;;;8.90;99.90;;;;;;5010948;28;20048;-72
2024/03/29 03:13:39;;;;;;;2.35;0.30;;;9.00;99.90;;;;;;5013418;28;20495;-72
2024/03/29 03:16:05;;;;;;;7.47;0.70;;;9.00;99.90;;;;;;4997363;28;20581;-71
2024/03/29 03:18:30;;;;;;;1.58;0.20;;;9.00;99.90;;;;;;5012110;28;20400;-72
2024/03/29 03:20:59;;;;;;;6.38;0.60;;;9.00;99.90;;;;;;5010814;28;20033;-72
2024/03/29 03:23:25;;;;;;;1.90;0.60;;;9.00;99.90;;;;;;5011408;28;20108;-72
2024/03/29 03:25:58;;;;;;;8.18;0.93;;;9.00;99.90;;;;;;5013602;28;20033;-70
2024/03/29 03:28:24;;;;;;;4.60;0.60;;;8.90;99.90;;;;;;5006737;28;20038;-72
2024/03/29 03:30:51;;;;;;;2.45;0.25;;;8.90;99.90;;;;;;5005345;28;20029;-71
2024/03/29 03:33:17;;;;;;;1.73;0.20;;;8.90;99.90;;;;;;4993943;28;20376;-72
2024/03/29 03:35:43;;;;;;;4.20;1.25;;;9.00;99.90;;;;;;5012623;28;20072;-72
2024/03/29 03:38:09;;;;;;;1.30;0.20;;;9.00;99.90;;;;;;5009305;28;20038;-72
2024/03/29 03:40:35;;;;;;;1.05;0.13;;;9.00;99.90;;;;;;5012418;28;20064;-72
2024/03/29 03:43:02;;;;;;;1.98;0.30;;;9.00;99.90;;;;;;5011345;28;20478;-72
2024/03/29 03:45:28;;;;;;;1.55;0.20;;;9.00;99.90;;;;;;5010950;28;20049;-72
2024/03/29 03:47:54;;;;;;;3.25;0.22;;;9.00;99.90;;;;;;5018397;28;20033;-72
2024/03/29 03:50:19;;;;;;;1.15;0.50;;;9.00;99.90;;;;;;5011684;28;20057;-72
2024/03/29 03:52:45;;;;;;;4.97;0.63;;;9.00;99.90;;;;;;5008843;28;20064;-72
2024/03/29 03:55:10;;;;;;;4.25;0.17;;;9.00;99.90;;;;;;5008888;28;20503;-72
2024/03/29 03:57:37;;;;;;;1.80;0.22;;;9.10;99.90;;;;;;5010669;28;20144;-72
2024/03/29 04:00:04;;;;;;;1.08;0.25;;;9.10;99.90;;;;;;5010667;28;20128;-71
2024/03/29 04:02:29;;;;;;;3.67;0.30;;;9.10;99.90;;;;;;5010694;28;20196;-73
2024/03/29 04:04:55;;;;;;;5.10;0.93;;;9.10;99.90;;;;;;5010684;28;20557;-73
2024/03/29 04:07:21;;;;;;;11.05;0.68;;;9.10;99.90;;;;;;4992290;28;20564;-72
2024/03/29 04:09:50;;;;;;;5.70;0.80;;;9.10;99.90;;;;;;5017923;28;20038;-72
2024/03/29 04:12:15;;;;;;;4.70;0.22;;;9.20;99.90;;;;;;5006683;28;20037;-71
2024/03/29 04:14:41;;;;;;;1.00;0.30;;;9.20;99.90;;;;;;5017153;28;20034;-72
2024/03/29 04:17:06;;;;;;;2.63;0.60;;;9.30;99.90;;;;;;5011719;28;20040;-71
2024/03/29 04:19:32;;;;;;;2.60;0.20;;;9.20;99.90;;;;;;5012154;28;20038;-71
2024/03/29 04:21:57;;;;;;;1.95;0.28;;;9.30;99.90;;;;;;5010854;28;20092;-73
2024/03/29 04:24:23;;;;;;;2.40;0.20;;;9.30;99.90;;;;;;5011796;28;20049;-73
2024/03/29 04:26:49;;;;;;;3.60;0.38;;;9.40;99.90;;;;;;5012866;28;20052;-72
2024/03/29 04:29:15;;;;;;;5.55;0.40;;;9.40;99.90;;;;;;5005203;28;20050;-72
2024/03/29 04:31:41;;;;;;;2.10;0.50;;;9.40;99.90;;;;;;5017506;28;20508;-72
2024/03/29 04:34:06;;;;;;;2.92;0.30;;;9.40;99.90;;;;;;5008047;28;20041;-71
2024/03/29 04:36:32;;;;;;;1.83;0.40;;;9.40;99.90;;;;;;5010115;28;20050;-72
2024/03/29 04:38:57;;;;;;;1.65;0.10;;;9.40;99.90;;;;;;5008114;28;20042;-72
2024/03/29 04:41:23;;;;;;;2.95;0.85;;;9.40;99.90;;;;;;5012223;28;20153;-72
2024/03/29 04:43:50;;;;;;;3.50;0.30;;;9.40;99.90;;;;;;5012046;28;20128;-72
2024/03/29 04:46:15;;;;;;;0.60;0.13;;;9.40;99.90;;;;;;5010403;28;20084;-72
2024/03/29 04:48:42;;;;;;;3.25;0.30;;;9.40;99.90;;;;;;5013559;28;20065;-72
2024/03/29 04:51:09;;;;;;;1.40;0.05;;;9.40;99.90;;;;;;5010116;28;20873;-72
2024/03/29 04:53:41;;;;;;;2.05;0.47;;;9.40;99.90;;;;;;5009692;28;20045;-72
2024/03/29 04:56:07;;;;;;;1.23;0.15;;;9.40;99.90;;;;;;4987101;28;20046;-72
2024/03/29 04:58:33;;;;;;;0.38;0.10;;;9.40;99.90;;;;;;5013000;28;20396;-72
2024/03/29 05:00:58;;;;;;;0.60;0.20;;;9.30;99.90;;;;;;5013016;28;20111;-69
2024/03/29 05:03:24;;;;;;;0.45;0.32;;;9.30;99.90;;;;;;5013709;28;20453;-71
2024/03/29 05:05:51;;;;;;;1.00;0.20;;;9.30;99.90;;;;;;5008848;28;20041;-70
2024/03/29 05:08:18;;;;;;;0.15;0.00;;;9.20;99.90;;;;;;5011689;28;20415;-72
2024/03/29 05:10:44;;;;;;;2.00;0.32;;;9.30;99.90;;;;;;5013636;28;20041;-72
2024/03/29 05:13:10;;;;;;;0.77;0.20;;;9.30;99.90;;;;;;5013433;28;20037;-71
2024/03/29 05:15:36;;;;;;;0.20;0.10;;;9.30;99.90;;;;;;5015653;28;20041;-72
2024/03/29 05:18:02;;;;;;;4.80;0.20;;;9.30;99.90;;;;;;5013523;28;20499;-71
2024/03/29 05:20:28;;;;;;;0.57;0.57;;;9.20;99.90;;;;;;5013144;28;20044;-72
2024/03/29 05:22:53;;;;;;;0.47;0.10;;;9.10;99.90;;;;;;5004770;28;20046;-72
2024/03/29 05:25:19;;;;;;;1.23;0.13;;;9.00;99.90;;;;;;5014467;28;20485;-72
2024/03/29 05:27:44;;;;;;;0.68;0.08;;;8.90;99.90;;;;;;5016073;28;20414;-72
2024/03/29 05:30:10;;;;;;;3.58;0.10;;;8.90;99.90;;;;;;5013257;28;20033;-71
2024/03/29 05:32:36;;;;;;;0.75;0.20;;;8.80;99.90;;;;;;5011756;28;20076;-72
2024/03/29 05:35:02;;;;;;;3.75;0.40;;;8.80;99.90;;;;;;5016857;28;20033;-69
2024/03/29 05:37:28;;;;;;;2.55;0.20;;;8.70;99.90;;;;;;5012085;28;20037;-72
2024/03/29 05:39:59;;;;;;;1.17;0.10;;;8.60;99.90;;;;;;5018975;28;20478;-71
2024/03/29 05:42:30;;;;;;;0.70;0.38;;;8.60;99.90;;;;;;5011322;28;20041;-72
2024/03/29 05:44:56;;;;;;;0.25;0.03;;;8.60;99.90;;;;;;4997253;28;20022;-73
2024/03/29 05:47:21;;;;;;;2.33;0.20;;;8.50;99.90;;;;;;5006740;28;20033;-72
2024/03/29 05:49:48;;;;;;;4.65;0.28;;;8.50;99.90;;;;;;5015308;28;20036;-73
2024/03/29 05:52:13;;;;;;;1.58;0.20;;;8.40;99.90;;;;;;5007030;28;20083;-71
2024/03/29 05:54:43;;;;;;;0.30;0.00;;;8.40;99.90;;;;;;4995106;28;20030;-73
2024/03/29 05:57:09;;;;;;;0.73;0.17;;;8.30;99.90;;;;;;5008036;28;20038;-72
2024/03/29 05:59:35;;;;;;;2.95;0.35;;;8.20;99.90;;;;;;5011124;28;20556;-72
2024/03/29 06:02:02;;;;;;;3.42;0.30;;;8.10;99.90;;;;;;5017294;28;20048;-72
2024/03/29 06:04:34;;;;;;;2.88;0.20;;;8.10;99.90;;;;;;5005931;28;20055;-72
2024/03/29 06:07:00;;;;;;;1.88;0.20;;;8.00;99.90;;;;;;5014166;28;20034;-72
2024/03/29 06:09:26;;;;;;;2.80;0.30;;;8.00;99.90;;;;;;5016991;28;20100;-72
2024/03/29 06:11:54;;;;;;;1.73;0.85;;;7.90;99.90;;;;;;5018416;28;20140;-72
2024/03/29 06:17:22;;;;;;;1.17;0.10;;;7.90;99.90;;;;;;5011541;28;20044;-69
2024/03/29 06:19:49;;;;;;;4.10;0.20;;;7.80;99.90;;;;;;5006987;28;20049;-71
2024/03/29 06:22:15;;;;;;;2.95;0.30;;;7.80;99.90;;;;;;5013724;28;20045;-71
2024/03/29 06:24:43;;;;;;;1.27;0.40;;;7.80;99.90;;;;;;5009261;28;20054;-71
2024/03/29 06:27:09;;;;;;;1.88;0.20;;;7.80;99.90;;;;;;5008066;28;20434;-71
2024/03/29 06:29:34;;;;;;;3.63;0.38;;;7.80;99.90;;;;;;5011303;28;20129;-71
2024/03/29 06:32:00;;;;;;;2.33;0.17;;;7.90;99.90;;;;;;5012949;28;20141;-72
2024/03/29 06:34:25;;;;;;;0.43;0.10;;;7.90;99.90;;;;;;5007214;28;20064;-71
2024/03/29 06:36:51;;;;;;;0.20;0.10;;;7.80;99.90;;;;;;4998930;28;20049;-71
2024/03/29 06:39:17;;;;;;;2.88;0.22;;;7.90;99.90;;;;;;5014967;28;20492;-71
2024/03/29 06:41:42;;;;;;;0.25;0.10;;;8.00;99.90;;;;;;5011453;28;20432;-71
2024/03/29 06:44:08;;;;;;;1.13;0.13;;;8.00;99.90;;;;;;5012545;28;20498;-71
2024/03/29 06:46:34;;;;;;;1.13;0.10;;;8.10;99.90;;;;;;5013374;28;20091;-72
2024/03/29 06:49:00;;;;;;;1.80;0.65;;;8.20;99.90;;;;;;5012496;28;20148;-71
2024/03/29 06:51:26;;;;;;;0.73;0.25;;;8.20;99.90;;;;;;4989576;28;20052;-71
2024/03/29 06:53:51;;;;;;;0.43;0.10;;;8.20;99.90;;;;;;5014470;28;20038;-71
2024/03/29 06:56:17;;;;;;;3.15;0.30;;;8.20;99.90;;;;;;5007520;28;20099;-69
2024/03/29 06:58:43;;;;;;;1.65;0.20;;;8.20;99.90;;;;;;5011829;28;20034;-71
2024/03/29 07:01:08;;;;;;;1.80;0.08;;;8.30;99.90;;;;;;4997174;28;20125;-71
2024/03/29 07:03:34;;;;;;;0.52;0.43;;;8.30;99.90;;;;;;5011242;28;20033;-71
2024/03/29 07:06:00;;;;;;;1.55;0.20;;;8.40;99.90;;;;;;5011460;28;20419;-72
2024/03/29 07:08:25;;;;;;;1.95;0.10;;;8.60;99.90;;;;;;5010928;28;20058;-72
2024/03/29 07:11:01;;;;;;;0.35;0.15;;;8.60;99.90;;;;;;5009303;28;20033;-72
2024/03/29 07:13:31;;;;;;;3.28;0.10;;;8.70;99.90;;;;;;5010584;28;20045;-71
2024/03/29 07:15:57;;;;;;;1.40;0.00;;;8.80;99.90;;;;;;5012435;28;20459;-70
2024/03/29 07:18:23;;;;;;;1.17;0.35;;;8.80;99.90;;;;;;5013845;28;20033;-71
2024/03/29 07:20:50;;;;;;;1.05;0.43;;;8.90;99.90;;;;;;5010761;28;20044;-72
2024/03/29 07:23:16;;;;;;;0.82;0.20;;;9.00;99.90;;;;;;5005742;28;20037;-71
2024/03/29 07:25:45;;;;;;;2.75;0.50;;;9.00;99.90;;;;;;5008207;28;20519;-70
2024/03/29 07:28:14;;;;;;;0.85;0.30;;;9.10;99.90;;;;;;5011286;28;20425;-69
2024/03/29 07:30:41;;;;;;;1.85;0.15;;;9.10;99.90;;;;;;4996667;28;20049;-72
2024/03/29 07:33:06;;;;;;;0.57;0.00;;;9.20;99.90;;;;;;5010564;28;20030;-70
2024/03/29 07:35:32;;;;;;;2.58;0.50;;;9.20;99.90;;;;;;5005474;28;20564;-72
2024/03/29 07:37:57;;;;;;;2.30;0.20;;;9.30;99.90;;;;;;5014943;28;20578;-71
2024/03/29 07:40:23;;;;;;;0.80;0.17;;;9.30;99.90;;;;;;5008953;28;20029;-73
2024/03/29 07:42:48;;;;;;;1.50;0.28;;;9.40;99.90;;;;;;5012019;28;20052;-72
2024/03/29 07:45:14;;;;;;;5.57;1.27;;;9.50;99.90;;;;;;5009576;28;20380;-72
2024/03/29 07:47:40;;;;;;;2.10;0.10;;;9.50;99.90;;;;;;5011711;28;20475;-73
2024/03/29 07:50:06;;;;;;;0.57;0.10;;;9.60;99.90;;;;;;5008442;28;20030;-71
2024/03/29 07:52:33;;;;;;;0.38;0.00;;;9.70;99.90;;;;;;5012206;28;20037;-71
2024/03/29 07:54:59;;;;;;;1.02;0.30;;;9.90;99.90;;;;;;5007727;28;20034;-71
2024/03/29 07:57:25;;;;;;;0.25;0.08;;;10.10;99.90;;;;;;5011032;28;20038;-71
2024/03/29 07:59:51;;;;;;;0.10;0.10;;;10.10;99.90;;;;;;4994111;28;20044;-71
2024/03/29 08:02:17;;;;;;;1.63;0.20;;;10.20;99.90;;;;;;5012902;28;20724;-71
2024/03/29 08:04:44;;;;;;;0.50;0.10;;;10.40;99.90;;;;;;5012560;28;20044;-72
2024/03/29 08:07:11;;;;;;;0.30;0.00;;;10.50;99.90;;;;;;5013426;28;20079;-68
2024/03/29 08:09:39;;;;;;;1.00;0.00;;;10.60;99.90;;;;;;5009577;28;20033;-70
2024/03/29 08:12:05;;;;;;;0.47;0.10;;;10.70;99.90;;;;;;5009854;28;20026;-68
2024/03/29 08:14:31;;;;;;;0.80;0.00;;;10.70;99.90;;;;;;5008474;28;20116;-71
2024/03/29 08:17:02;;;;;;;1.30;0.08;;;10.70;99.90;;;;;;5008996;28;20626;-72
2024/03/29 08:19:27;;;;;;;0.93;0.05;;;10.60;99.90;;;;;;5010507;28;20041;-72
2024/03/29 08:21:53;;;;;;;0.52;0.10;;;10.50;99.90;;;;;;5019478;28;20042;-72
2024/03/29 08:24:18;;;;;;;1.95;0.08;;;10.50;99.90;;;;;;5010335;28;20045;-69
2024/03/29 08:26:44;;;;;;;0.35;0.00;;;10.60;99.90;;;;;;5013540;28;20143;-72
2024/03/29 08:29:10;;;;;;;0.30;0.10;;;10.60;99.90;;;;;;5011396;28;20757;-72
2024/03/29 08:31:36;;;;;;;1.88;0.00;;;10.70;99.90;;;;;;5014535;28;20110;-70
2024/03/29 08:34:02;;;;;;;0.05;0.00;;;10.80;99.90;;;;;;5013521;28;20040;-73
2024/03/29 08:36:27;;;;;;;1.50;0.10;;;11.00;99.90;;;;;;5007479;28;20503;-71
2024/03/29 08:38:53;;;;;;;0.70;0.22;;;11.10;99.90;;;;;;5013728;28;20104;-72
2024/03/29 08:41:18;;;;;;;2.22;0.60;;;11.10;99.90;;;;;;5013994;28;20026;-72
2024/03/29 08:43:44;;;;;;;0.73;0.00;;;11.10;99.90;;;;;;5002711;28;20033;-72
2024/03/29 08:46:10;;;;;;;0.25;0.00;;;11.20;99.90;;;;;;5003814;28;20037;-71
2024/03/29 08:48:37;;;;;;;1.15;0.10;;;11.20;99.90;;;;;;5003499;28;20042;-70
2024/03/29 08:51:03;;;;;;;0.60;0.20;;;11.30;99.90;;;;;;5002612;28;20029;-72
2024/03/29 08:53:29;;;;;;;0.08;0.00;;;11.20;99.90;;;;;;5007628;28;20026;-71
2024/03/29 08:55:54;;;;;;;0.47;0.10;;;11.20;99.90;;;;;;5005565;28;20124;-69
2024/03/29 08:58:20;;;;;;;1.70;0.05;;;11.40;99.90;;;;;;5016372;28;20132;-67
2024/03/29 09:00:55;;;;;;;0.88;0.20;;;11.60;99.90;;;;;;5006282;28;20027;-71
2024/03/29 09:03:22;;;;;;;0.52;0.00;;;11.90;99.90;;;;;;5006837;28;20038;-70
2024/03/29 09:05:48;;;;;;;0.90;0.32;;;12.10;99.90;;;;;;5006158;28;20040;-70
2024/03/29 09:08:15;;;;;;;0.08;0.05;;;12.30;99.90;;;;;;5013129;28;20045;-74
2024/03/29 09:10:41;;;;;;;0.17;0.00;;;12.30;99.90;;;;;;4990708;28;20407;-71
2024/03/29 09:13:07;;;;;;;1.25;0.10;;;12.40;99.90;;;;;;5010688;28;20034;-71
2024/03/29 09:15:33;;;;;;;0.00;0.00;;;12.20;99.90;;;;;;5013734;28;20037;-72
2024/03/29 09:18:02;;;;;;;0.45;0.10;;;12.10;99.90;;;;;;5014670;28;20038;-72
2024/03/29 09:20:28;;;;;;;0.00;0.00;;;12.00;99.90;;;;;;5010588;28;20593;-72
2024/03/29 09:22:53;;;;;;;0.20;0.00;;;12.10;99.90;;;;;;5016443;28;20037;-73
2024/03/29 09:25:19;;;;;;;0.20;0.00;;;12.00;99.90;;;;;;5012763;28;20037;-72
2024/03/29 09:27:48;;;;;;;0.68;0.10;;;12.10;99.90;;;;;;5012097;28;20025;-71
2024/03/29 09:30:15;;;;;;;0.10;0.00;;;12.00;99.90;;;;;;5015152;28;20041;-72
2024/03/29 09:32:41;;;;;;;1.10;0.00;;;12.00;99.90;;;;;;5012243;28;20448;-70
2024/03/29 09:35:07;;;;;;;0.60;0.08;;;12.00;99.90;;;;;;5015828;28;20144;-70
2024/03/29 09:37:35;;;;;;;1.90;0.32;;;11.90;99.90;;;;;;5007887;28;20034;-73
2024/03/29 09:40:04;;;;;;;1.38;0.20;;;11.80;99.90;;;;;;5009768;28;20180;-73
2024/03/29 09:42:32;;;;;;;3.30;0.28;;;11.70;99.90;;;;;;5012414;28;20030;-72
2024/03/29 09:44:59;;;;;;;1.00;0.00;;;11.60;99.90;;;;;;5012097;28;20034;-72
2024/03/29 09:47:27;;;;;;;1.98;0.25;;;11.50;99.90;;;;;;5007874;28;20197;-71
2024/03/29 09:49:54;;;;;;;1.05;0.10;;;11.40;99.90;;;;;;5010079;28;20046;-69
2024/03/29 09:52:20;;;;;;;1.73;0.10;;;11.50;99.90;;;;;;5017059;28;20119;-74
2024/03/29 09:54:46;;;;;;;0.85;0.10;;;11.60;99.90;;;;;;5014173;28;20117;-72
2024/03/29 09:57:17;;;;;;;1.75;0.28;;;11.70;99.90;;;;;;4992528;28;20081;-72
2024/03/29 09:59:42;;;;;;;0.40;0.10;;;11.90;99.90;;;;;;5007001;28;20112;-72
2024/03/29 10:02:16;;;;;;;1.17;0.20;;;12.00;99.90;;;;;;5010735;28;20529;-67
2024/03/29 10:04:45;;;;;;;1.52;0.22;;;12.20;99.90;;;;;;5013162;28;20033;-73
2024/03/29 10:07:12;;;;;;;2.97;0.80;;;12.40;99.90;;;;;;5010836;28;20037;-72
2024/03/29 10:09:38;;;;;;;0.45;0.20;;;12.50;99.90;;;;;;5014631;28;20040;-73
2024/03/29 10:12:05;;;;;;;1.52;0.47;;;12.50;99.90;;;;;;5013517;28;20079;-71
2024/03/29 10:14:31;;;;;;;1.55;0.20;;;12.60;99.90;;;;;;5012001;28;20049;-69
2024/03/29 10:17:00;;;;;;;0.60;0.10;;;12.80;99.90;;;;;;5013053;28;20033;-69
2024/03/29 10:19:25;;;;;;;2.88;0.43;;;13.00;99.90;;;;;;5009086;28;20048;-73
2024/03/29 10:21:51;;;;;;;2.83;0.20;;;13.10;99.90;;;;;;5012588;28;20037;-71
2024/03/29 10:24:17;;;;;;;0.65;0.35;;;13.10;99.90;;;;;;5016206;28;20030;-72
2024/03/29 10:26:43;;;;;;;2.92;0.88;;;13.30;99.90;;;;;;5011268;28;20069;-72
2024/03/29 10:29:09;;;;;;;2.45;0.63;;;13.50;99.90;;;;;;5012935;28;20053;-73
2024/03/29 10:31:36;;;;;;;0.57;0.30;;;13.50;99.90;;;;;;5011226;28;20065;-72
2024/03/29 10:34:08;;;;;;;0.52;0.30;;;13.60;99.90;;;;;;5010218;28;20172;-69
2024/03/29 10:36:39;;;;;;;1.70;0.40;;;13.80;99.90;;;;;;5011731;28;20038;-73
2024/03/29 10:39:11;;;;;;;;;;;13.90;99.90;;;;;;5009912;28;20030;-72
2024/03/29 10:41:42;;;;;;;2.90;0.20;;;13.90;99.90;;;;;;5005798;28;20409;-72
2024/03/29 10:44:12;;;;;;;1.95;0.60;;;13.90;99.90;;;;;;5010700;28;20041;-72
2024/03/29 10:46:41;;;;;;;1.15;0.20;;;13.90;99.90;;;;;;5011338;28;20188;-70
2024/03/29 10:49:11;;;;;;;0.52;0.15;;;14.00;99.90;;;;;;5011308;28;20034;-68
2024/03/29 10:51:41;;;;;;;1.35;0.28;;;14.10;99.90;;;;;;5014196;28;20037;-72
2024/03/29 10:54:11;;;;;;;4.35;1.15;;;14.10;99.90;;;;;;5008365;28;20033;-71
2024/03/29 10:56:37;;;;;;;1.45;0.40;;;14.20;99.90;;;;;;5005625;28;20119;-70
2024/03/29 10:59:20;;;;;;;1.73;0.60;;;14.10;99.90;;;;;;5009072;28;20062;-73
2024/03/29 11:01:52;;;;;;;2.10;0.82;;;14.00;99.90;;;;;;5001440;28;20060;-74
2024/03/29 11:04:22;;;;;;;1.50;0.15;;;14.20;99.90;;;;;;5005996;28;20033;-75
2024/03/29 11:06:52;;;;;;;2.05;0.30;;;14.20;99.90;;;;;;5012155;28;20096;-73
2024/03/29 11:09:20;;;;;;;1.85;0.85;;;14.30;99.90;;;;;;5017520;28;20035;-74
2024/03/29 11:11:53;;;;;;;0.65;0.20;;;14.50;99.90;;;;;;5012990;28;20034;-72
2024/03/29 11:14:56;;;;;;;6.13;0.55;;;14.60;99.90;;;;;;5011144;28;20096;-71
2024/03/29 11:17:22;;;;;;;1.27;0.57;;;14.60;99.90;;;;;;4988920;28;20045;-72
2024/03/29 11:19:49;;;;;;;0.30;0.10;;;14.70;99.90;;;;;;5009092;28;20486;-73
2024/03/29 11:22:15;;;;;;;3.30;0.28;;;14.80;99.90;;;;;;5005726;28;20140;-73
2024/03/29 11:24:41;;;;;;;1.58;0.20;;;14.80;99.90;;;;;;5010841;28;20531;-74
2024/03/29 11:27:10;;;;;;;7.75;0.43;;;14.90;99.90;;;;;;5005422;28;20038;-73
2024/03/29 11:29:42;;;;;;;1.30;0.20;;;14.80;99.90;;;;;;5008260;28;20037;-72
2024/03/29 11:32:07;;;;;;;3.50;0.63;;;14.70;99.90;;;;;;5010897;28;20117;-72
2024/03/29 11:34:33;;;;;;;1.45;0.20;;;14.60;99.90;;;;;;5008109;28;20144;-75
2024/03/29 11:37:16;;;;;;;0.80;0.20;;;14.50;99.90;;;;;;5003877;28;20042;-73
2024/03/29 11:39:47;;;;;;;0.52;0.20;;;14.60;99.90;;;;;;5007646;28;20080;-73
2024/03/29 11:42:13;;;;;;;2.30;0.40;;;14.70;99.90;;;;;;5004491;28;20114;-71
2024/03/29 11:44:38;;;;;;;0.82;0.40;;;14.90;99.90;;;;;;5004583;28;20195;-71
2024/03/29 11:47:08;;;;;;;2.00;0.93;;;15.00;99.90;;;;;;5009704;28;20483;-72
2024/03/29 11:49:34;;;;;;;2.33;0.63;;;15.00;99.90;;;;;;4987273;28;20058;-72
2024/03/29 11:52:06;;;;;;;4.32;0.52;;;15.00;99.90;;;;;;4990976;28;20123;-72
2024/03/29 11:54:39;;;;;;;1.17;0.73;;;15.00;99.90;;;;;;4999112;28;20140;-71
2024/03/29 11:57:05;;;;;;;1.88;0.40;;;15.10;99.90;;;;;;5010143;28;20069;-72
2024/03/29 11:59:30;;;;;;;1.52;0.68;;;15.10;99.90;;;;;;5008949;28;20514;-71
2024/03/29 12:01:56;;;;;;;1.83;0.80;;;15.00;99.90;;;;;;4998044;28;20039;-72
2024/03/29 12:04:22;;;;;;;0.88;0.70;;;15.00;99.90;;;;;;4995532;28;20261;-72
2024/03/29 12:06:49;;;;;;;0.95;0.70;;;15.00;99.90;;;;;;4997580;28;20108;-72
2024/03/29 12:09:15;;;;;;;0.93;0.45;;;15.10;99.90;;;;;;5017508;28;20073;-73
2024/03/29 12:11:45;;;;;;;2.70;0.68;;;15.10;99.90;;;;;;5010988;28;20064;-72
2024/03/29 12:14:15;;;;;;;1.35;0.75;;;15.10;99.90;;;;;;5011225;28;20062;-72
2024/03/29 12:16:45;;;;;;;1.92;0.52;;;15.10;99.90;;;;;;5007432;28;20040;-73
2024/03/29 12:19:22;;;;;;;3.53;0.50;;;15.10;99.90;;;;;;5012194;28;20034;-71
2024/03/29 12:21:48;;;;;;;1.98;1.05;;;15.10;99.90;;;;;;5010908;28;20136;-72
2024/03/29 12:24:14;;;;;;;4.13;1.13;;;15.10;99.90;;;;;;5013291;28;20081;-73
2024/03/29 12:26:41;;;;;;;1.08;0.50;;;15.10;99.90;;;;;;5017372;28;20048;-72
2024/03/29 12:29:07;;;;;;;3.03;0.40;;;15.20;99.90;;;;;;4997527;28;20053;-71
2024/03/29 12:31:33;;;;;;;2.08;0.60;;;15.20;99.90;;;;;;5013608;28;20034;-73
2024/03/29 12:33:59;;;;;;;1.90;0.10;;;15.20;99.90;;;;;;5013636;28;20037;-72
2024/03/29 12:36:29;;;;;;;0.93;0.50;;;15.30;99.90;;;;;;5013296;28;20495;-71
2024/03/29 12:38:58;;;;;;;0.35;0.10;;;15.30;99.90;;;;;;5011687;28;20041;-72
2024/03/29 12:41:24;;;;;;;1.15;0.40;;;15.30;99.90;;;;;;5009903;28;20104;-72
2024/03/29 12:43:51;;;;;;;1.08;0.20;;;15.40;99.90;;;;;;5015676;28;20041;-73
2024/03/29 12:46:18;;;;;;;0.98;0.35;;;15.30;99.90;;;;;;5015945;28;20465;-73
2024/03/29 12:48:43;;;;;;;1.20;0.20;;;15.30;99.90;;;;;;5011648;28;20026;-74
2024/03/29 12:51:11;;;;;;;2.55;0.22;;;15.30;99.90;;;;;;5019849;28;20128;-72
2024/03/29 12:53:39;;;;;;;2.05;0.20;;;15.30;99.90;;;;;;5011492;28;20083;-72
2024/03/29 12:56:05;;;;;;;1.40;0.28;;;15.30;99.90;;;;;;5006975;28;20496;-73